Time;durP1;ratioP1;P1;durP2;ratioP2;P2;SDS_P1;SDS_P2;PMS_P1;PMS_P2;Temp;Humidity;BMP_temperature;BMP_pressure;BME280_temperature;BME280_humidity;BME280_pressure;Samples;Min_cycle;Max_cycle;Signal;HPM_P1;HPM_P2
2021/12/24 00:02:15;;;;;;;88.47;49.80;;;;;;;;;;10150889;28;20062;-53
2021/12/24 00:07:15;;;;;;;77.93;40.72;;;;;;;;;;10152478;28;20082;-54
2021/12/24 00:12:17;;;;;;;85.07;45.63;;;;;;;;;;10152885;28;20062;-56
2021/12/24 00:17:20;;;;;;;143.75;67.15;;;;;;;;;;10153441;28;20468;-55
2021/12/24 00:22:53;;;;;;;166.68;80.55;;;;;;;;;;10153373;28;20069;-56
2021/12/24 00:38:19;;;;;;;185.02;94.45;;;;;;;;;;10151636;28;20085;-56
2021/12/24 00:43:17;;;;;;;74.05;40.30;;;;;;;;;;10152994;28;20082;-54
2021/12/24 00:48:17;;;;;;;138.00;60.30;;;;;;;;;;10152555;28;20089;-56
2021/12/24 00:58:29;;;;;;;47.47;28.13;;;;;;;;;;10151766;28;20082;-54
2021/12/24 01:03:27;;;;;;;46.17;30.58;;;;;;;;;;10152234;28;20078;-55
2021/12/24 01:08:26;;;;;;;48.72;29.02;;;;;;;;;;10149888;28;20078;-53
2021/12/24 01:13:24;;;;;;;39.88;24.92;;;;;;;;;;10149309;28;20071;-52
2021/12/24 01:18:33;;;;;;;21.83;15.90;;;;;;;;;;10148927;28;20065;-50
2021/12/24 01:23:37;;;;;;;72.97;40.58;;;;;;;;;;10151530;28;20081;-50
2021/12/24 01:39:15;;;;;;;38.30;23.60;;;;;;;;;;10145884;28;20080;-55
2021/12/24 01:44:14;;;;;;;71.78;39.80;;;;;;;;;;10150798;28;20042;-55
2021/12/24 01:49:14;;;;;;;39.33;22.63;;;;;;;;;;10150487;28;20503;-56
2021/12/24 01:54:12;;;;;;;149.95;79.00;;;;;;;;;;10152539;28;20458;-56
2021/12/24 01:59:11;;;;;;;68.85;38.78;;;;;;;;;;10154918;28;20070;-55
2021/12/24 02:04:11;;;;;;;34.72;21.65;;;;;;;;;;10158236;28;20082;-55
2021/12/24 02:09:12;;;;;;;25.83;17.98;;;;;;;;;;10155703;28;20084;-56
2021/12/24 02:14:12;;;;;;;43.90;28.73;;;;;;;;;;10154410;28;20089;-53
2021/12/24 02:29:43;;;;;;;25.30;16.08;;;;;;;;;;10152040;28;19957;-52
2021/12/24 02:34:41;;;;;;;23.77;16.25;;;;;;;;;;10157310;28;20521;-55
2021/12/24 02:39:40;;;;;;;188.50;76.45;;;;;;;;;;10157570;28;20070;-56
2021/12/24 02:44:38;;;;;;;97.70;44.22;;;;;;;;;;10157426;28;20065;-56
2021/12/24 02:54:53;;;;;;;60.47;32.90;;;;;;;;;;10153353;28;20074;-56
2021/12/24 03:00:01;;;;;;;53.20;29.83;;;;;;;;;;10155901;28;20085;-57
2021/12/24 03:05:02;;;;;;;20.23;15.55;;;;;;;;;;10152927;28;20081;-55
2021/12/24 03:10:00;;;;;;;24.75;15.68;;;;;;;;;;10154656;28;20088;-55
2021/12/24 03:14:58;;;;;;;37.00;22.95;;;;;;;;;;10154946;28;20073;-55
2021/12/24 03:20:03;;;;;;;45.70;26.70;;;;;;;;;;10154557;28;20459;-54
2021/12/24 03:25:04;;;;;;;28.63;19.65;;;;;;;;;;10155952;28;20069;-54
2021/12/24 03:30:02;;;;;;;21.95;15.10;;;;;;;;;;10155419;28;20072;-56
2021/12/24 03:35:03;;;;;;;18.50;13.93;;;;;;;;;;10154333;28;20530;-54
2021/12/24 03:40:01;;;;;;;21.15;14.52;;;;;;;;;;10154205;28;20088;-55
2021/12/24 03:45:09;;;;;;;20.08;15.40;;;;;;;;;;10154171;28;20503;-56
2021/12/24 03:50:11;;;;;;;22.15;14.85;;;;;;;;;;10153240;28;20324;-52
2021/12/24 03:55:12;;;;;;;23.98;15.07;;;;;;;;;;10153988;28;20522;-55
2021/12/24 04:00:13;;;;;;;19.80;13.60;;;;;;;;;;10153300;28;20046;-51
2021/12/24 04:05:15;;;;;;;20.52;13.63;;;;;;;;;;10159921;28;20093;-54
2021/12/24 04:10:49;;;;;;;22.35;16.02;;;;;;;;;;10132452;28;20089;-55
2021/12/24 04:15:58;;;;;;;26.10;17.65;;;;;;;;;;10160131;28;20070;-54
2021/12/24 04:26:12;;;;;;;;;;;;;;;;;;10152464;28;20480;-56
2021/12/24 04:31:12;;;;;;;24.05;17.10;;;;;;;;;;10157777;28;20402;-58
2021/12/24 04:36:32;;;;;;;25.05;17.10;;;;;;;;;;10151454;28;20073;-57
2021/12/24 04:52:14;;;;;;;28.67;17.95;;;;;;;;;;10150877;28;20078;-49
2021/12/24 05:02:42;;;;;;;26.58;18.95;;;;;;;;;;10160647;28;20109;-52
2021/12/24 05:13:02;;;;;;;43.10;28.58;;;;;;;;;;10132312;28;20480;-56
2021/12/24 05:18:28;;;;;;;30.67;21.58;;;;;;;;;;10150127;28;20725;-55
2021/12/24 05:23:45;;;;;;;26.50;20.63;;;;;;;;;;10165082;28;20069;-52
2021/12/24 05:28:43;;;;;;;28.55;18.10;;;;;;;;;;10143187;28;20081;-54
2021/12/24 05:33:46;;;;;;;27.52;20.25;;;;;;;;;;10153356;28;20074;-55
2021/12/24 05:38:46;;;;;;;26.30;17.17;;;;;;;;;;10151000;28;20077;-54
2021/12/24 05:43:44;;;;;;;35.10;19.63;;;;;;;;;;10150524;28;20043;-56
2021/12/24 05:48:43;;;;;;;33.60;22.42;;;;;;;;;;10150232;28;20077;-55
2021/12/24 05:53:43;;;;;;;34.17;20.45;;;;;;;;;;10150002;28;20458;-56
2021/12/24 05:58:43;;;;;;;30.23;18.75;;;;;;;;;;10145979;28;20078;-56
2021/12/24 06:03:42;;;;;;;36.85;23.70;;;;;;;;;;10149277;28;20554;-54
2021/12/24 06:08:40;;;;;;;41.63;25.70;;;;;;;;;;10150818;28;20077;-55
2021/12/24 06:13:40;;;;;;;38.45;23.25;;;;;;;;;;10150778;28;20070;-54
2021/12/24 06:18:40;;;;;;;46.03;30.02;;;;;;;;;;10149368;28;20070;-54
2021/12/24 06:23:39;;;;;;;45.20;30.42;;;;;;;;;;10144719;28;20101;-57
2021/12/24 06:28:38;;;;;;;48.33;32.60;;;;;;;;;;10150338;28;20546;-54
2021/12/24 06:33:37;;;;;;;79.40;48.92;;;;;;;;;;10150339;28;20066;-52
2021/12/24 06:38:36;;;;;;;69.00;47.60;;;;;;;;;;10151592;28;20081;-52
2021/12/24 06:43:34;;;;;;;52.05;37.63;;;;;;;;;;10157370;28;20074;-52
2021/12/24 06:48:32;;;;;;;68.80;43.38;;;;;;;;;;10157701;28;20108;-56
2021/12/24 06:53:32;;;;;;;64.30;40.42;;;;;;;;;;10155639;28;20078;-52
2021/12/24 06:58:30;;;;;;;64.55;42.67;;;;;;;;;;10155971;28;20050;-53
2021/12/24 07:03:30;;;;;;;69.47;47.10;;;;;;;;;;10154967;28;20050;-54
2021/12/24 07:08:28;;;;;;;41.10;28.10;;;;;;;;;;10156679;28;20090;-55
2021/12/24 07:13:28;;;;;;;36.20;24.95;;;;;;;;;;10155476;28;20074;-54
2021/12/24 07:18:26;;;;;;;41.75;27.95;;;;;;;;;;10147690;28;20119;-54
2021/12/24 07:23:24;;;;;;;47.47;29.38;;;;;;;;;;10150711;28;20506;-53
2021/12/24 07:28:23;;;;;;;38.38;28.23;;;;;;;;;;10146481;28;20078;-57
2021/12/24 07:33:22;;;;;;;29.90;21.02;;;;;;;;;;10147955;28;20074;-51
2021/12/24 07:38:21;;;;;;;62.40;37.50;;;;;;;;;;10143729;28;20066;-57
2021/12/24 07:43:19;;;;;;;59.17;36.40;;;;;;;;;;10151190;28;20069;-55
2021/12/24 07:48:26;;;;;;;49.90;33.13;;;;;;;;;;10146304;28;20074;-56
2021/12/24 07:53:26;;;;;;;88.55;52.03;;;;;;;;;;10144764;28;20069;-53
2021/12/24 07:58:25;;;;;;;83.63;52.58;;;;;;;;;;10145716;28;20653;-50
2021/12/24 08:03:25;;;;;;;48.67;33.85;;;;;;;;;;10145304;28;20073;-54
2021/12/24 08:08:24;;;;;;;43.85;23.27;;;;;;;;;;10151058;28;20081;-56
2021/12/24 08:13:23;;;;;;;43.22;31.23;;;;;;;;;;10150773;28;20069;-54
2021/12/24 08:18:22;;;;;;;49.33;31.35;;;;;;;;;;10153062;28;20074;-53
2021/12/24 08:23:20;;;;;;;40.95;29.15;;;;;;;;;;10152361;28;20074;-55
2021/12/24 08:28:18;;;;;;;57.97;36.05;;;;;;;;;;10152084;28;20089;-51
2021/12/24 08:33:18;;;;;;;57.47;33.65;;;;;;;;;;10151913;28;20075;-51
2021/12/24 08:38:18;;;;;;;40.42;29.08;;;;;;;;;;10152462;28;20085;-53
2021/12/24 08:43:16;;;;;;;41.63;31.02;;;;;;;;;;10151163;28;20069;-55
2021/12/24 08:48:15;;;;;;;26.02;19.30;;;;;;;;;;10150299;28;20066;-50
2021/12/24 08:53:14;;;;;;;47.47;29.23;;;;;;;;;;10149399;28;20077;-56
2021/12/24 08:58:13;;;;;;;32.42;24.02;;;;;;;;;;10146731;28;20085;-53
2021/12/24 09:03:11;;;;;;;37.03;27.00;;;;;;;;;;10145215;28;20062;-55
2021/12/24 09:08:10;;;;;;;51.88;34.90;;;;;;;;;;10152218;28;20070;-56
2021/12/24 09:13:10;;;;;;;59.17;36.63;;;;;;;;;;10145409;28;20512;-56
2021/12/24 09:18:08;;;;;;;43.25;28.58;;;;;;;;;;10148981;28;20518;-56
2021/12/24 09:23:07;;;;;;;42.15;28.67;;;;;;;;;;10141982;28;20092;-55
2021/12/24 09:28:05;;;;;;;46.35;31.63;;;;;;;;;;10148426;28;20165;-54
2021/12/24 09:33:05;;;;;;;113.97;59.20;;;;;;;;;;10147701;28;20078;-55
2021/12/24 09:38:04;;;;;;;45.10;31.45;;;;;;;;;;10141493;28;20110;-51
2021/12/24 09:43:02;;;;;;;30.17;22.05;;;;;;;;;;10146851;28;20483;-53
2021/12/24 09:48:01;;;;;;;102.32;59.28;;;;;;;;;;10150118;28;20073;-56
2021/12/24 09:53:00;;;;;;;42.28;29.50;;;;;;;;;;10146969;28;20523;-57
2021/12/24 09:57:59;;;;;;;31.23;24.27;;;;;;;;;;10147718;28;20073;-54
2021/12/24 10:02:58;;;;;;;32.90;23.70;;;;;;;;;;10149081;28;20066;-53
2021/12/24 10:08:06;;;;;;;49.13;30.70;;;;;;;;;;10149814;28;20065;-55
2021/12/24 10:13:23;;;;;;;37.67;24.35;;;;;;;;;;10150617;28;20086;-54
2021/12/24 10:18:28;;;;;;;67.75;43.13;;;;;;;;;;10158366;28;20077;-53
2021/12/24 10:23:41;;;;;;;89.10;53.90;;;;;;;;;;10157195;28;20109;-55
2021/12/24 10:28:48;;;;;;;44.25;29.38;;;;;;;;;;10156139;28;20142;-54
2021/12/24 10:34:05;;;;;;;38.53;26.80;;;;;;;;;;10156512;28;20585;-56
2021/12/24 10:39:05;;;;;;;36.30;26.23;;;;;;;;;;10158113;28;20074;-53
2021/12/24 10:44:15;;;;;;;26.83;19.13;;;;;;;;;;10157542;28;20077;-57
2021/12/24 10:49:24;;;;;;;79.97;47.92;;;;;;;;;;10152725;28;20085;-54
2021/12/24 10:54:23;;;;;;;49.88;32.65;;;;;;;;;;10156695;28;20479;-47
2021/12/24 10:59:36;;;;;;;34.45;22.83;;;;;;;;;;10156542;28;20107;-57
2021/12/24 11:04:35;;;;;;;45.38;30.90;;;;;;;;;;10156451;28;20081;-57
2021/12/24 11:09:34;;;;;;;43.25;28.40;;;;;;;;;;10152882;28;20487;-57
2021/12/24 11:14:36;;;;;;;34.50;23.27;;;;;;;;;;10155238;28;20062;-56
2021/12/24 11:19:50;;;;;;;44.45;30.55;;;;;;;;;;10153539;28;20073;-56
2021/12/24 11:24:50;;;;;;;44.45;29.15;;;;;;;;;;10148810;28;20081;-56
2021/12/24 11:29:48;;;;;;;42.03;25.90;;;;;;;;;;10148658;28;20074;-57
2021/12/24 11:34:46;;;;;;;66.47;34.72;;;;;;;;;;10148612;28;20074;-56
2021/12/24 11:39:44;;;;;;;40.20;25.50;;;;;;;;;;10154263;28;20575;-57
2021/12/24 11:44:44;;;;;;;39.97;27.25;;;;;;;;;;10153156;28;20056;-57
2021/12/24 11:49:42;;;;;;;44.58;28.10;;;;;;;;;;10154326;28;20070;-55
2021/12/24 11:54:41;;;;;;;31.67;21.08;;;;;;;;;;10151652;28;20078;-55
2021/12/24 11:59:41;;;;;;;27.42;20.65;;;;;;;;;;10150269;28;20682;-56
2021/12/24 12:04:41;;;;;;;51.42;29.98;;;;;;;;;;10152957;28;20073;-56
2021/12/24 12:09:40;;;;;;;70.03;36.67;;;;;;;;;;10153069;28;20070;-57
2021/12/24 12:14:38;;;;;;;52.60;28.90;;;;;;;;;;10152891;28;20078;-57
2021/12/24 12:19:39;;;;;;;142.85;72.68;;;;;;;;;;10152727;28;20479;-57
2021/12/24 12:29:55;;;;;;;85.97;48.05;;;;;;;;;;10152966;28;20078;-56
2021/12/24 12:34:56;;;;;;;44.35;29.35;;;;;;;;;;10151457;28;20492;-57
2021/12/24 12:39:57;;;;;;;53.60;33.03;;;;;;;;;;10152915;28;20474;-52
2021/12/24 12:44:56;;;;;;;55.47;31.98;;;;;;;;;;10152705;28;20483;-57
2021/12/24 12:50:09;;;;;;;56.17;35.78;;;;;;;;;;10151319;28;20507;-58
2021/12/24 12:55:27;;;;;;;74.20;44.72;;;;;;;;;;10151112;28;20077;-58
2021/12/24 13:00:27;;;;;;;66.55;39.67;;;;;;;;;;10151214;28;20058;-57
2021/12/24 13:05:27;;;;;;;54.47;34.50;;;;;;;;;;10150596;28;20061;-58
2021/12/24 13:10:27;;;;;;;34.20;24.83;;;;;;;;;;10147717;28;20555;-56
2021/12/24 13:15:25;;;;;;;39.78;26.00;;;;;;;;;;10148072;28;20069;-55
2021/12/24 13:20:34;;;;;;;41.53;26.67;;;;;;;;;;10148890;28;20057;-58
2021/12/24 13:25:37;;;;;;;51.20;27.95;;;;;;;;;;10151217;28;20073;-57
2021/12/24 13:30:36;;;;;;;119.03;63.40;;;;;;;;;;10149987;28;20085;-57
2021/12/24 13:35:38;;;;;;;132.35;73.53;;;;;;;;;;10152190;28;20074;-56
2021/12/24 13:40:38;;;;;;;41.92;30.42;;;;;;;;;;10151497;28;20074;-57
2021/12/24 13:45:38;;;;;;;73.15;47.85;;;;;;;;;;10152348;28;20062;-58
2021/12/24 13:56:04;;;;;;;53.85;37.38;;;;;;;;;;10157709;28;20433;-57
2021/12/24 14:01:03;;;;;;;51.10;38.88;;;;;;;;;;10159276;28;20072;-57
2021/12/24 14:06:03;;;;;;;47.63;37.85;;;;;;;;;;10159839;28;20073;-58
2021/12/24 14:11:03;;;;;;;40.88;28.48;;;;;;;;;;10156714;28;20076;-50
2021/12/24 14:16:11;;;;;;;74.32;45.33;;;;;;;;;;10156955;28;20478;-57
2021/12/24 14:26:40;;;;;;;37.33;25.85;;;;;;;;;;10157451;28;20070;-55
2021/12/24 14:31:50;;;;;;;22.13;17.23;;;;;;;;;;10149532;28;20085;-56
2021/12/24 14:36:56;;;;;;;27.77;19.60;;;;;;;;;;10154731;28;20081;-57
2021/12/24 14:42:14;;;;;;;28.52;25.60;;;;;;;;;;10156574;28;20508;-58
2021/12/24 14:47:18;;;;;;;21.98;17.38;;;;;;;;;;10156864;28;20084;-55
2021/12/24 14:52:18;;;;;;;22.92;14.35;;;;;;;;;;10151460;28;20075;-58
2021/12/24 14:57:18;;;;;;;16.50;14.00;;;;;;;;;;10150599;28;20073;-58
2021/12/24 15:02:17;;;;;;;18.33;11.50;;;;;;;;;;10156110;28;20070;-57
2021/12/24 15:07:16;;;;;;;9.05;7.60;;;;;;;;;;10157623;28;20104;-58
2021/12/24 15:12:21;;;;;;;28.38;18.23;;;;;;;;;;10156918;28;20085;-57
2021/12/24 15:17:20;;;;;;;29.40;21.90;;;;;;;;;;10152669;28;20511;-57
2021/12/24 15:22:19;;;;;;;28.42;18.08;;;;;;;;;;10156305;28;20074;-57
2021/12/24 15:27:17;;;;;;;9.57;8.57;;;;;;;;;;10155836;28;20560;-57
2021/12/24 15:32:15;;;;;;;13.75;10.23;;;;;;;;;;10156014;28;20077;-58
2021/12/24 15:37:15;;;;;;;15.93;10.95;;;;;;;;;;10155808;28;20077;-58
2021/12/24 15:42:15;;;;;;;8.60;6.85;;;;;;;;;;10150094;28;20181;-57
2021/12/24 15:47:14;;;;;;;13.10;11.70;;;;;;;;;;10155471;28;20464;-57
2021/12/24 15:52:12;;;;;;;27.45;19.38;;;;;;;;;;10155166;28;20083;-57
2021/12/24 15:57:12;;;;;;;13.63;11.32;;;;;;;;;;10148525;28;20522;-57
2021/12/24 16:02:11;;;;;;;26.27;23.27;;;;;;;;;;10149896;28;20093;-57
2021/12/24 16:07:09;;;;;;;14.35;10.43;;;;;;;;;;10153693;28;20074;-56
2021/12/24 16:12:10;;;;;;;17.00;14.10;;;;;;;;;;10154029;28;20105;-57
2021/12/24 16:17:10;;;;;;;18.25;14.55;;;;;;;;;;10154428;28;20078;-58
2021/12/24 16:22:08;;;;;;;26.63;16.35;;;;;;;;;;10153192;28;20066;-58
2021/12/24 16:27:06;;;;;;;17.50;11.23;;;;;;;;;;10154560;28;20070;-58
2021/12/24 16:32:05;;;;;;;18.00;12.98;;;;;;;;;;10149627;28;20462;-56
2021/12/24 16:37:05;;;;;;;17.52;9.77;;;;;;;;;;10145529;28;20066;-54
2021/12/24 16:42:03;;;;;;;18.13;12.35;;;;;;;;;;10148531;28;20074;-55
2021/12/24 16:47:02;;;;;;;12.07;8.80;;;;;;;;;;10150426;28;20470;-57
2021/12/24 16:52:00;;;;;;;11.27;7.90;;;;;;;;;;10149843;28;20483;-55
2021/12/24 16:57:00;;;;;;;18.15;11.95;;;;;;;;;;10144938;28;20085;-58
2021/12/24 17:01:58;;;;;;;19.88;12.50;;;;;;;;;;10145935;28;20070;-58
2021/12/24 17:06:57;;;;;;;43.72;25.85;;;;;;;;;;10146901;28;20062;-57
2021/12/24 17:11:55;;;;;;;38.08;25.35;;;;;;;;;;10151010;28;20081;-57
2021/12/24 17:16:57;;;;;;;23.13;18.20;;;;;;;;;;10152055;28;20061;-58
2021/12/24 17:21:56;;;;;;;15.77;10.65;;;;;;;;;;10151984;28;20065;-56
2021/12/24 17:26:54;;;;;;;11.27;7.65;;;;;;;;;;10150965;28;20070;-54
2021/12/24 17:31:52;;;;;;;8.65;5.50;;;;;;;;;;10152332;28;20360;-56
2021/12/24 17:36:53;;;;;;;12.73;6.82;;;;;;;;;;10152139;28;20070;-56
2021/12/24 17:41:51;;;;;;;8.32;6.85;;;;;;;;;;10151740;28;20534;-57
2021/12/24 17:46:49;;;;;;;7.95;7.15;;;;;;;;;;10150743;28;20455;-57
2021/12/24 17:51:49;;;;;;;11.52;6.28;;;;;;;;;;10151076;28;20495;-56
2021/12/24 17:56:48;;;;;;;7.70;6.03;;;;;;;;;;10151338;28;20539;-57
2021/12/24 18:01:47;;;;;;;6.60;5.32;;;;;;;;;;10152200;28;20074;-57
2021/12/24 18:06:46;;;;;;;10.30;6.72;;;;;;;;;;10152130;28;20507;-59
2021/12/24 18:11:45;;;;;;;7.57;5.90;;;;;;;;;;10151501;28;20377;-56
2021/12/24 18:16:45;;;;;;;11.05;7.70;;;;;;;;;;10151089;28;20066;-58
2021/12/24 18:21:43;;;;;;;8.35;6.13;;;;;;;;;;10151618;28;20628;-58
2021/12/24 18:26:41;;;;;;;14.18;9.95;;;;;;;;;;10150575;28;20081;-57
2021/12/24 18:31:40;;;;;;;19.65;12.25;;;;;;;;;;10151580;28;20074;-57
2021/12/24 18:36:40;;;;;;;14.05;9.90;;;;;;;;;;10154230;28;20448;-58
2021/12/24 18:41:39;;;;;;;14.75;9.02;;;;;;;;;;10157165;28;20531;-57
2021/12/24 18:46:37;;;;;;;15.25;10.27;;;;;;;;;;10157600;28;20476;-56
2021/12/24 18:51:36;;;;;;;7.88;6.45;;;;;;;;;;10158124;28;20073;-58
2021/12/24 18:56:35;;;;;;;13.57;7.38;;;;;;;;;;10157057;28;20089;-56
2021/12/24 19:01:34;;;;;;;8.20;5.40;;;;;;;;;;10157765;28;20538;-57
2021/12/24 19:06:32;;;;;;;6.40;5.68;;;;;;;;;;10157457;28;20085;-56
2021/12/24 19:11:31;;;;;;;7.72;6.82;;;;;;;;;;10156988;28;20162;-56
2021/12/24 19:16:30;;;;;;;8.15;6.78;;;;;;;;;;10156875;28;20082;-58
2021/12/24 19:21:29;;;;;;;7.57;6.75;;;;;;;;;;10156598;28;20585;-58
2021/12/24 19:26:27;;;;;;;8.85;7.43;;;;;;;;;;10154929;28;20030;-56
2021/12/24 19:31:25;;;;;;;5.88;5.28;;;;;;;;;;10150372;28;20066;-55
2021/12/24 19:36:25;;;;;;;6.22;4.40;;;;;;;;;;10156276;28;20074;-56
2021/12/24 19:41:23;;;;;;;8.77;6.78;;;;;;;;;;10156090;28;20068;-58
2021/12/24 19:46:22;;;;;;;16.35;10.10;;;;;;;;;;10151156;28;20066;-55
2021/12/24 19:51:22;;;;;;;5.60;4.80;;;;;;;;;;10152845;28;20066;-56
2021/12/24 19:56:22;;;;;;;12.07;9.18;;;;;;;;;;10147810;28;20134;-55
2021/12/24 20:01:20;;;;;;;7.20;5.70;;;;;;;;;;10153166;28;20069;-55
2021/12/24 20:06:19;;;;;;;12.68;7.65;;;;;;;;;;10151978;28;20077;-56
2021/12/24 20:11:17;;;;;;;14.73;9.20;;;;;;;;;;10153358;28;20100;-55
2021/12/24 20:16:17;;;;;;;7.15;5.38;;;;;;;;;;10138443;28;20161;-53
2021/12/24 20:21:15;;;;;;;6.35;5.22;;;;;;;;;;10149653;28;20074;-54
2021/12/24 20:26:14;;;;;;;7.55;4.88;;;;;;;;;;10148190;28;20526;-56
2021/12/24 20:31:15;;;;;;;9.07;5.32;;;;;;;;;;10145567;28;20062;-55
2021/12/24 20:36:15;;;;;;;8.45;5.80;;;;;;;;;;10146379;28;20069;-55
2021/12/24 20:41:13;;;;;;;4.60;4.13;;;;;;;;;;10150662;28;20069;-51
2021/12/24 20:46:11;;;;;;;5.97;5.13;;;;;;;;;;10148983;28;20062;-52
2021/12/24 20:51:10;;;;;;;6.47;5.35;;;;;;;;;;10146925;28;20066;-57
2021/12/24 20:56:12;;;;;;;9.48;6.10;;;;;;;;;;10151458;28;20097;-56
2021/12/24 21:01:10;;;;;;;9.02;5.88;;;;;;;;;;10152089;28;20077;-57
2021/12/24 21:06:09;;;;;;;6.93;4.65;;;;;;;;;;10149038;28;20077;-54
2021/12/24 21:11:07;;;;;;;4.78;4.13;;;;;;;;;;10147699;28;20519;-54
2021/12/24 21:16:07;;;;;;;7.78;6.05;;;;;;;;;;10150049;28;20073;-56
2021/12/24 21:21:05;;;;;;;6.10;5.25;;;;;;;;;;10148997;28;20315;-50
2021/12/24 21:26:04;;;;;;;5.85;4.95;;;;;;;;;;10148414;28;20088;-54
2021/12/24 21:31:02;;;;;;;9.27;4.93;;;;;;;;;;10151407;28;20074;-56
2021/12/24 21:36:02;;;;;;;5.28;4.38;;;;;;;;;;10149434;28;20496;-56
2021/12/24 21:41:01;;;;;;;7.80;6.03;;;;;;;;;;10151643;28;20535;-57
2021/12/24 21:46:00;;;;;;;6.28;4.90;;;;;;;;;;10152120;28;20062;-54
2021/12/24 21:51:00;;;;;;;6.50;4.90;;;;;;;;;;10151392;28;20073;-55
2021/12/24 21:56:00;;;;;;;7.45;5.30;;;;;;;;;;10149527;28;20611;-56
2021/12/24 22:00:59;;;;;;;5.43;4.18;;;;;;;;;;10151238;28;20070;-56
2021/12/24 22:08:22;;;;;;;9.68;6.30;;;;;;;;;;10150862;28;20081;-57
2021/12/24 22:11:32;;;;;;;6.80;4.13;;;;;;;;;;10144424;28;20046;-56
2021/12/24 22:16:31;;;;;;;4.63;3.75;;;;;;;;;;10158807;28;20077;-56
2021/12/24 22:21:41;;;;;;;4.82;4.32;;;;;;;;;;10158793;28;20070;-56
2021/12/24 22:26:41;;;;;;;7.35;4.95;;;;;;;;;;10159238;28;20496;-55
2021/12/24 22:31:39;;;;;;;5.30;3.78;;;;;;;;;;10158301;28;20499;-56
2021/12/24 22:36:38;;;;;;;3.95;3.55;;;;;;;;;;10158627;28;20089;-55
2021/12/24 22:41:36;;;;;;;8.90;6.70;;;;;;;;;;10157868;28;20074;-56
2021/12/24 22:46:37;;;;;;;6.40;4.03;;;;;;;;;;10158467;28;20093;-56
2021/12/24 22:51:56;;;;;;;10.60;7.40;;;;;;;;;;10158277;28;20069;-56
2021/12/24 22:56:55;;;;;;;7.88;5.13;;;;;;;;;;10157048;28;20554;-54
2021/12/24 23:01:55;;;;;;;8.30;6.45;;;;;;;;;;10157603;28;20074;-56
2021/12/24 23:06:53;;;;;;;5.28;4.10;;;;;;;;;;10157936;28;20081;-56
2021/12/24 23:11:51;;;;;;;5.32;3.83;;;;;;;;;;10157560;28;20073;-56
2021/12/24 23:16:50;;;;;;;4.25;3.65;;;;;;;;;;10157315;28;20077;-51
2021/12/24 23:21:49;;;;;;;5.45;3.65;;;;;;;;;;10157263;28;20073;-52
2021/12/24 23:26:48;;;;;;;7.30;5.38;;;;;;;;;;10156326;28;20467;-54
2021/12/24 23:31:47;;;;;;;6.13;4.85;;;;;;;;;;10155889;28;20070;-56
2021/12/24 23:36:46;;;;;;;7.00;5.00;;;;;;;;;;10156040;28;20070;-53
2021/12/24 23:41:45;;;;;;;4.70;3.40;;;;;;;;;;10156515;28;20488;-54
2021/12/24 23:47:02;;;;;;;4.20;3.45;;;;;;;;;;10155284;28;20054;-57
2021/12/24 23:52:00;;;;;;;4.57;3.88;;;;;;;;;;10153613;28;20062;-56
2021/12/24 23:57:00;;;;;;;3.85;3.45;;;;;;;;;;10153787;28;20078;-53
